sensor_id;sensor_type;location;lat;lon;timestamp;P1;durP1;ratioP1;P2;durP2;ratioP2
50483;SDS011;36409;52.168;20.878;2024-01-30T00:01:38;59.57;;;29.20;;
50483;SDS011;36409;52.168;20.878;2024-01-30T00:04:07;59.17;;;28.50;;
50483;SDS011;36409;52.168;20.878;2024-01-30T00:06:36;62.53;;;29.20;;
50483;SDS011;36409;52.168;20.878;2024-01-30T00:09:07;51.70;;;25.93;;
50483;SDS011;36409;52.168;20.878;2024-01-30T00:11:39;56.23;;;26.93;;
50483;SDS011;36409;52.168;20.878;2024-01-30T00:14:09;54.30;;;27.50;;
50483;SDS011;36409;52.168;20.878;2024-01-30T00:16:38;51.27;;;26.23;;
50483;SDS011;36409;52.168;20.878;2024-01-30T00:19:07;57.33;;;27.03;;
50483;SDS011;36409;52.168;20.878;2024-01-30T00:21:36;55.60;;;25.47;;
50483;SDS011;36409;52.168;20.878;2024-01-30T00:24:05;56.33;;;27.83;;
50483;SDS011;36409;52.168;20.878;2024-01-30T00:26:37;58.90;;;28.77;;
50483;SDS011;36409;52.168;20.878;2024-01-30T00:29:06;52.90;;;27.53;;
50483;SDS011;36409;52.168;20.878;2024-01-30T00:31:35;57.93;;;27.13;;
50483;SDS011;36409;52.168;20.878;2024-01-30T00:34:09;55.48;;;26.30;;
50483;SDS011;36409;52.168;20.878;2024-01-30T00:36:38;54.27;;;27.47;;
50483;SDS011;36409;52.168;20.878;2024-01-30T00:39:07;53.23;;;25.73;;
50483;SDS011;36409;52.168;20.878;2024-01-30T00:41:37;53.23;;;27.37;;
50483;SDS011;36409;52.168;20.878;2024-01-30T00:44:06;56.30;;;27.70;;
50483;SDS011;36409;52.168;20.878;2024-01-30T00:46:36;50.40;;;24.97;;
50483;SDS011;36409;52.168;20.878;2024-01-30T00:49:10;50.37;;;24.90;;
50483;SDS011;36409;52.168;20.878;2024-01-30T00:51:39;51.87;;;25.80;;
50483;SDS011;36409;52.168;20.878;2024-01-30T00:54:08;49.40;;;24.60;;
50483;SDS011;36409;52.168;20.878;2024-01-30T00:56:37;52.90;;;25.03;;
50483;SDS011;36409;52.168;20.878;2024-01-30T00:59:06;52.77;;;26.10;;
50483;SDS011;36409;52.168;20.878;2024-01-30T01:01:35;56.77;;;26.93;;
50483;SDS011;36409;52.168;20.878;2024-01-30T01:04:05;52.63;;;25.10;;
50483;SDS011;36409;52.168;20.878;2024-01-30T01:06:35;47.57;;;24.60;;
50483;SDS011;36409;52.168;20.878;2024-01-30T01:09:05;52.67;;;23.80;;
50483;SDS011;36409;52.168;20.878;2024-01-30T01:11:35;48.67;;;25.13;;
50483;SDS011;36409;52.168;20.878;2024-01-30T01:14:05;54.00;;;26.50;;
50483;SDS011;36409;52.168;20.878;2024-01-30T01:16:35;50.97;;;25.83;;
50483;SDS011;36409;52.168;20.878;2024-01-30T01:19:05;50.97;;;25.83;;
50483;SDS011;36409;52.168;20.878;2024-01-30T01:21:34;53.00;;;26.17;;
50483;SDS011;36409;52.168;20.878;2024-01-30T01:24:03;50.73;;;25.70;;
50483;SDS011;36409;52.168;20.878;2024-01-30T01:26:35;48.23;;;26.20;;
50483;SDS011;36409;52.168;20.878;2024-01-30T01:29:04;53.07;;;26.17;;
50483;SDS011;36409;52.168;20.878;2024-01-30T01:31:40;54.33;;;27.23;;
50483;SDS011;36409;52.168;20.878;2024-01-30T01:34:12;50.17;;;25.40;;
50483;SDS011;36409;52.168;20.878;2024-01-30T01:36:42;52.75;;;25.80;;
50483;SDS011;36409;52.168;20.878;2024-01-30T01:39:11;53.23;;;24.33;;
50483;SDS011;36409;52.168;20.878;2024-01-30T01:41:40;56.43;;;26.37;;
50483;SDS011;36409;52.168;20.878;2024-01-30T01:44:12;48.13;;;24.53;;
50483;SDS011;36409;52.168;20.878;2024-01-30T01:46:41;54.97;;;26.63;;
50483;SDS011;36409;52.168;20.878;2024-01-30T01:49:11;55.53;;;27.03;;
50483;SDS011;36409;52.168;20.878;2024-01-30T01:51:40;53.97;;;27.33;;
50483;SDS011;36409;52.168;20.878;2024-01-30T01:54:12;52.77;;;25.70;;
50483;SDS011;36409;52.168;20.878;2024-01-30T01:56:43;55.43;;;25.67;;
50483;SDS011;36409;52.168;20.878;2024-01-30T01:59:13;56.50;;;27.97;;
50483;SDS011;36409;52.168;20.878;2024-01-30T02:01:43;51.67;;;25.30;;
50483;SDS011;36409;52.168;20.878;2024-01-30T02:04:15;48.40;;;25.03;;
50483;SDS011;36409;52.168;20.878;2024-01-30T02:06:45;50.93;;;25.47;;
50483;SDS011;36409;52.168;20.878;2024-01-30T02:09:14;52.53;;;26.37;;
50483;SDS011;36409;52.168;20.878;2024-01-30T02:11:43;57.43;;;25.47;;
50483;SDS011;36409;52.168;20.878;2024-01-30T02:14:12;49.93;;;24.97;;
50483;SDS011;36409;52.168;20.878;2024-01-30T02:16:41;54.23;;;25.43;;
50483;SDS011;36409;52.168;20.878;2024-01-30T02:19:12;52.73;;;24.33;;
50483;SDS011;36409;52.168;20.878;2024-01-30T02:21:42;49.97;;;25.37;;
50483;SDS011;36409;52.168;20.878;2024-01-30T02:24:11;48.57;;;24.70;;
50483;SDS011;36409;52.168;20.878;2024-01-30T02:26:40;53.47;;;27.17;;
50483;SDS011;36409;52.168;20.878;2024-01-30T02:29:09;50.20;;;25.07;;
50483;SDS011;36409;52.168;20.878;2024-01-30T02:31:38;51.97;;;25.20;;
50483;SDS011;36409;52.168;20.878;2024-01-30T02:34:07;55.40;;;25.65;;
50483;SDS011;36409;52.168;20.878;2024-01-30T02:36:36;51.93;;;26.63;;
50483;SDS011;36409;52.168;20.878;2024-01-30T02:39:05;51.10;;;25.67;;
50483;SDS011;36409;52.168;20.878;2024-01-30T02:41:34;54.97;;;25.40;;
50483;SDS011;36409;52.168;20.878;2024-01-30T02:44:03;55.73;;;25.60;;
50483;SDS011;36409;52.168;20.878;2024-01-30T02:46:35;53.30;;;25.67;;
50483;SDS011;36409;52.168;20.878;2024-01-30T02:49:05;54.40;;;27.03;;
50483;SDS011;36409;52.168;20.878;2024-01-30T02:51:35;55.67;;;25.67;;
50483;SDS011;36409;52.168;20.878;2024-01-30T02:54:03;51.17;;;25.17;;
50483;SDS011;36409;52.168;20.878;2024-01-30T02:56:32;55.53;;;26.00;;
50483;SDS011;36409;52.168;20.878;2024-01-30T02:59:02;57.17;;;25.73;;
50483;SDS011;36409;52.168;20.878;2024-01-30T03:01:33;53.10;;;26.43;;
50483;SDS011;36409;52.168;20.878;2024-01-30T03:04:11;48.87;;;24.67;;
50483;SDS011;36409;52.168;20.878;2024-01-30T03:06:45;50.83;;;26.27;;
50483;SDS011;36409;52.168;20.878;2024-01-30T03:09:15;48.45;;;23.27;;
50483;SDS011;36409;52.168;20.878;2024-01-30T03:11:45;56.17;;;25.63;;
50483;SDS011;36409;52.168;20.878;2024-01-30T03:14:17;48.77;;;24.87;;
50483;SDS011;36409;52.168;20.878;2024-01-30T03:16:46;52.90;;;26.10;;
50483;SDS011;36409;52.168;20.878;2024-01-30T03:19:17;51.77;;;25.50;;
50483;SDS011;36409;52.168;20.878;2024-01-30T03:21:47;48.20;;;24.03;;
50483;SDS011;36409;52.168;20.878;2024-01-30T03:24:15;50.00;;;24.73;;
50483;SDS011;36409;52.168;20.878;2024-01-30T03:26:44;49.10;;;23.67;;
50483;SDS011;36409;52.168;20.878;2024-01-30T03:29:13;52.83;;;24.63;;
50483;SDS011;36409;52.168;20.878;2024-01-30T03:31:43;51.57;;;25.23;;
50483;SDS011;36409;52.168;20.878;2024-01-30T03:34:12;49.07;;;24.30;;
50483;SDS011;36409;52.168;20.878;2024-01-30T03:36:41;48.07;;;23.97;;
50483;SDS011;36409;52.168;20.878;2024-01-30T03:39:10;52.50;;;25.43;;
50483;SDS011;36409;52.168;20.878;2024-01-30T03:41:42;52.73;;;25.87;;
50483;SDS011;36409;52.168;20.878;2024-01-30T03:44:11;51.40;;;25.63;;
50483;SDS011;36409;52.168;20.878;2024-01-30T03:46:40;46.23;;;23.90;;
50483;SDS011;36409;52.168;20.878;2024-01-30T03:49:09;50.60;;;25.27;;
50483;SDS011;36409;52.168;20.878;2024-01-30T03:51:39;49.47;;;25.33;;
50483;SDS011;36409;52.168;20.878;2024-01-30T03:54:07;45.97;;;23.87;;
50483;SDS011;36409;52.168;20.878;2024-01-30T03:56:40;49.70;;;23.87;;
50483;SDS011;36409;52.168;20.878;2024-01-30T03:59:09;49.37;;;24.77;;
50483;SDS011;36409;52.168;20.878;2024-01-30T04:01:38;48.53;;;24.47;;
50483;SDS011;36409;52.168;20.878;2024-01-30T04:04:07;51.60;;;24.17;;
50483;SDS011;36409;52.168;20.878;2024-01-30T04:06:36;49.40;;;24.20;;
50483;SDS011;36409;52.168;20.878;2024-01-30T04:09:05;50.90;;;24.70;;
50483;SDS011;36409;52.168;20.878;2024-01-30T04:11:36;52.97;;;24.50;;
50483;SDS011;36409;52.168;20.878;2024-01-30T04:14:05;54.57;;;24.90;;
50483;SDS011;36409;52.168;20.878;2024-01-30T04:16:42;45.03;;;23.57;;
50483;SDS011;36409;52.168;20.878;2024-01-30T04:19:11;54.40;;;26.50;;
50483;SDS011;36409;52.168;20.878;2024-01-30T04:21:40;49.60;;;24.07;;
50483;SDS011;36409;52.168;20.878;2024-01-30T04:24:09;49.23;;;25.47;;
50483;SDS011;36409;52.168;20.878;2024-01-30T04:26:38;53.87;;;26.60;;
50483;SDS011;36409;52.168;20.878;2024-01-30T04:29:07;55.00;;;26.53;;
50483;SDS011;36409;52.168;20.878;2024-01-30T04:31:36;58.57;;;28.90;;
50483;SDS011;36409;52.168;20.878;2024-01-30T04:34:05;64.80;;;30.20;;
50483;SDS011;36409;52.168;20.878;2024-01-30T04:36:35;60.45;;;29.20;;
50483;SDS011;36409;52.168;20.878;2024-01-30T04:39:06;63.03;;;29.73;;
50483;SDS011;36409;52.168;20.878;2024-01-30T04:41:39;59.53;;;30.40;;
50483;SDS011;36409;52.168;20.878;2024-01-30T04:44:08;68.50;;;32.63;;
50483;SDS011;36409;52.168;20.878;2024-01-30T04:46:47;58.97;;;29.63;;
50483;SDS011;36409;52.168;20.878;2024-01-30T04:49:47;51.90;;;25.37;;
50483;SDS011;36409;52.168;20.878;2024-01-30T04:52:18;50.07;;;24.70;;
50483;SDS011;36409;52.168;20.878;2024-01-30T04:54:47;49.33;;;24.57;;
50483;SDS011;36409;52.168;20.878;2024-01-30T04:57:22;53.77;;;25.60;;
50483;SDS011;36409;52.168;20.878;2024-01-30T04:59:51;49.83;;;25.70;;
50483;SDS011;36409;52.168;20.878;2024-01-30T05:02:25;49.23;;;25.00;;
50483;SDS011;36409;52.168;20.878;2024-01-30T05:04:58;48.97;;;24.27;;
50483;SDS011;36409;52.168;20.878;2024-01-30T05:07:30;55.27;;;24.77;;
50483;SDS011;36409;52.168;20.878;2024-01-30T05:10:01;50.07;;;23.83;;
50483;SDS011;36409;52.168;20.878;2024-01-30T05:12:36;53.20;;;22.47;;
50483;SDS011;36409;52.168;20.878;2024-01-30T05:15:14;52.77;;;24.37;;
50483;SDS011;36409;52.168;20.878;2024-01-30T05:17:43;46.87;;;24.20;;
50483;SDS011;36409;52.168;20.878;2024-01-30T05:20:13;49.97;;;24.43;;
50483;SDS011;36409;52.168;20.878;2024-01-30T05:22:42;50.20;;;23.73;;
50483;SDS011;36409;52.168;20.878;2024-01-30T05:25:13;51.87;;;25.07;;
50483;SDS011;36409;52.168;20.878;2024-01-30T05:27:42;49.17;;;24.83;;
50483;SDS011;36409;52.168;20.878;2024-01-30T05:30:12;50.13;;;25.93;;
50483;SDS011;36409;52.168;20.878;2024-01-30T05:32:44;54.67;;;25.57;;
50483;SDS011;36409;52.168;20.878;2024-01-30T05:35:13;49.20;;;23.60;;
50483;SDS011;36409;52.168;20.878;2024-01-30T05:37:42;50.13;;;25.77;;
50483;SDS011;36409;52.168;20.878;2024-01-30T05:40:11;64.53;;;27.80;;
50483;SDS011;36409;52.168;20.878;2024-01-30T05:42:42;61.00;;;28.50;;
50483;SDS011;36409;52.168;20.878;2024-01-30T05:45:11;58.73;;;26.97;;
50483;SDS011;36409;52.168;20.878;2024-01-30T05:47:40;54.23;;;28.13;;
50483;SDS011;36409;52.168;20.878;2024-01-30T05:50:09;59.07;;;29.67;;
50483;SDS011;36409;52.168;20.878;2024-01-30T05:52:38;55.80;;;29.83;;
50483;SDS011;36409;52.168;20.878;2024-01-30T05:55:13;65.30;;;27.90;;
50483;SDS011;36409;52.168;20.878;2024-01-30T05:57:44;59.07;;;28.80;;
50483;SDS011;36409;52.168;20.878;2024-01-30T06:00:18;54.03;;;28.30;;
50483;SDS011;36409;52.168;20.878;2024-01-30T06:02:47;59.60;;;26.95;;
50483;SDS011;36409;52.168;20.878;2024-01-30T06:05:16;53.53;;;27.07;;
50483;SDS011;36409;52.168;20.878;2024-01-30T06:07:52;58.60;;;27.20;;
50483;SDS011;36409;52.168;20.878;2024-01-30T06:10:21;55.83;;;28.07;;
50483;SDS011;36409;52.168;20.878;2024-01-30T06:12:51;55.83;;;25.40;;
50483;SDS011;36409;52.168;20.878;2024-01-30T06:15:19;51.30;;;26.10;;
50483;SDS011;36409;52.168;20.878;2024-01-30T06:17:48;62.00;;;27.73;;
50483;SDS011;36409;52.168;20.878;2024-01-30T06:20:18;50.50;;;25.47;;
50483;SDS011;36409;52.168;20.878;2024-01-30T06:22:47;49.33;;;25.37;;
50483;SDS011;36409;52.168;20.878;2024-01-30T06:25:16;53.67;;;25.17;;
50483;SDS011;36409;52.168;20.878;2024-01-30T06:27:45;57.40;;;26.30;;
50483;SDS011;36409;52.168;20.878;2024-01-30T06:30:15;55.83;;;26.57;;
50483;SDS011;36409;52.168;20.878;2024-01-30T06:32:44;49.77;;;25.43;;
50483;SDS011;36409;52.168;20.878;2024-01-30T06:35:13;55.03;;;25.50;;
50483;SDS011;36409;52.168;20.878;2024-01-30T06:37:42;50.23;;;23.67;;
50483;SDS011;36409;52.168;20.878;2024-01-30T06:40:12;49.80;;;24.07;;
50483;SDS011;36409;52.168;20.878;2024-01-30T06:42:42;46.10;;;23.37;;
50483;SDS011;36409;52.168;20.878;2024-01-30T06:45:13;50.73;;;23.93;;
50483;SDS011;36409;52.168;20.878;2024-01-30T06:47:43;48.83;;;23.50;;
50483;SDS011;36409;52.168;20.878;2024-01-30T06:50:12;53.13;;;24.00;;
50483;SDS011;36409;52.168;20.878;2024-01-30T06:52:41;48.50;;;23.47;;
50483;SDS011;36409;52.168;20.878;2024-01-30T06:55:11;48.73;;;23.47;;
50483;SDS011;36409;52.168;20.878;2024-01-30T06:57:40;48.37;;;23.60;;
50483;SDS011;36409;52.168;20.878;2024-01-30T07:00:12;50.10;;;25.27;;
50483;SDS011;36409;52.168;20.878;2024-01-30T07:02:56;57.70;;;25.33;;
50483;SDS011;36409;52.168;20.878;2024-01-30T07:05:26;54.27;;;24.97;;
50483;SDS011;36409;52.168;20.878;2024-01-30T07:07:54;56.30;;;26.60;;
50483;SDS011;36409;52.168;20.878;2024-01-30T07:10:24;60.25;;;26.70;;
50483;SDS011;36409;52.168;20.878;2024-01-30T07:12:53;61.20;;;27.67;;
50483;SDS011;36409;52.168;20.878;2024-01-30T07:15:22;89.87;;;38.37;;
50483;SDS011;36409;52.168;20.878;2024-01-30T07:17:51;94.83;;;39.90;;
50483;SDS011;36409;52.168;20.878;2024-01-30T07:20:23;103.83;;;46.67;;
50483;SDS011;36409;52.168;20.878;2024-01-30T07:22:53;99.83;;;49.47;;
50483;SDS011;36409;52.168;20.878;2024-01-30T07:25:22;94.63;;;44.93;;
50483;SDS011;36409;52.168;20.878;2024-01-30T07:27:56;63.90;;;33.48;;
50483;SDS011;36409;52.168;20.878;2024-01-30T07:30:25;64.43;;;31.17;;
50483;SDS011;36409;52.168;20.878;2024-01-30T07:33:00;55.10;;;28.87;;
50483;SDS011;36409;52.168;20.878;2024-01-30T07:35:30;60.83;;;29.10;;
50483;SDS011;36409;52.168;20.878;2024-01-30T07:37:58;51.10;;;25.93;;
50483;SDS011;36409;52.168;20.878;2024-01-30T07:40:27;56.50;;;27.27;;
50483;SDS011;36409;52.168;20.878;2024-01-30T07:42:57;55.47;;;26.57;;
50483;SDS011;36409;52.168;20.878;2024-01-30T07:45:26;52.17;;;26.00;;
50483;SDS011;36409;52.168;20.878;2024-01-30T07:48:01;51.63;;;24.13;;
50483;SDS011;36409;52.168;20.878;2024-01-30T07:50:30;51.40;;;23.37;;
50483;SDS011;36409;52.168;20.878;2024-01-30T07:53:00;47.70;;;23.13;;
50483;SDS011;36409;52.168;20.878;2024-01-30T07:55:29;49.80;;;23.67;;
50483;SDS011;36409;52.168;20.878;2024-01-30T07:58:02;42.57;;;20.70;;
50483;SDS011;36409;52.168;20.878;2024-01-30T08:00:32;45.23;;;20.77;;
50483;SDS011;36409;52.168;20.878;2024-01-30T08:03:02;43.53;;;20.70;;
50483;SDS011;36409;52.168;20.878;2024-01-30T08:05:35;41.03;;;21.20;;
50483;SDS011;36409;52.168;20.878;2024-01-30T08:08:04;40.83;;;19.60;;
50483;SDS011;36409;52.168;20.878;2024-01-30T08:10:36;36.90;;;18.55;;
50483;SDS011;36409;52.168;20.878;2024-01-30T08:13:05;41.13;;;18.57;;
50483;SDS011;36409;52.168;20.878;2024-01-30T08:15:36;38.30;;;17.97;;
50483;SDS011;36409;52.168;20.878;2024-01-30T08:18:05;34.30;;;17.17;;
50483;SDS011;36409;52.168;20.878;2024-01-30T08:20:34;35.97;;;16.93;;
50483;SDS011;36409;52.168;20.878;2024-01-30T08:23:03;30.53;;;16.43;;
50483;SDS011;36409;52.168;20.878;2024-01-30T08:25:32;37.33;;;16.87;;
50483;SDS011;36409;52.168;20.878;2024-01-30T08:28:04;33.37;;;15.80;;
50483;SDS011;36409;52.168;20.878;2024-01-30T08:30:34;30.95;;;15.95;;
50483;SDS011;36409;52.168;20.878;2024-01-30T08:33:03;29.00;;;14.73;;
50483;SDS011;36409;52.168;20.878;2024-01-30T08:35:32;34.33;;;16.40;;
50483;SDS011;36409;52.168;20.878;2024-01-30T08:38:02;30.17;;;14.83;;
50483;SDS011;36409;52.168;20.878;2024-01-30T08:40:31;32.00;;;15.33;;
50483;SDS011;36409;52.168;20.878;2024-01-30T08:43:02;28.10;;;14.83;;
50483;SDS011;36409;52.168;20.878;2024-01-30T08:45:31;30.37;;;16.23;;
50483;SDS011;36409;52.168;20.878;2024-01-30T08:48:03;26.23;;;13.97;;
50483;SDS011;36409;52.168;20.878;2024-01-30T08:50:32;26.23;;;14.13;;
50483;SDS011;36409;52.168;20.878;2024-01-30T08:53:02;24.23;;;13.33;;
50483;SDS011;36409;52.168;20.878;2024-01-30T08:55:31;29.50;;;14.23;;
50483;SDS011;36409;52.168;20.878;2024-01-30T08:58:03;28.23;;;14.40;;
50483;SDS011;36409;52.168;20.878;2024-01-30T09:00:32;26.80;;;14.47;;
50483;SDS011;36409;52.168;20.878;2024-01-30T09:03:04;27.67;;;14.23;;
50483;SDS011;36409;52.168;20.878;2024-01-30T09:05:35;26.10;;;13.80;;
50483;SDS011;36409;52.168;20.878;2024-01-30T09:08:04;27.50;;;14.27;;
50483;SDS011;36409;52.168;20.878;2024-01-30T09:10:35;26.93;;;13.27;;
50483;SDS011;36409;52.168;20.878;2024-01-30T09:13:04;25.30;;;13.47;;
50483;SDS011;36409;52.168;20.878;2024-01-30T09:15:34;23.80;;;13.03;;
50483;SDS011;36409;52.168;20.878;2024-01-30T09:18:03;21.87;;;12.70;;
50483;SDS011;36409;52.168;20.878;2024-01-30T09:20:32;25.13;;;13.20;;
50483;SDS011;36409;52.168;20.878;2024-01-30T09:23:02;28.07;;;12.47;;
50483;SDS011;36409;52.168;20.878;2024-01-30T09:25:31;27.40;;;13.33;;
50483;SDS011;36409;52.168;20.878;2024-01-30T09:28:01;30.50;;;17.50;;
50483;SDS011;36409;52.168;20.878;2024-01-30T09:30:30;25.93;;;13.03;;
50483;SDS011;36409;52.168;20.878;2024-01-30T09:33:02;23.77;;;11.80;;
50483;SDS011;36409;52.168;20.878;2024-01-30T09:35:32;29.23;;;12.80;;
50483;SDS011;36409;52.168;20.878;2024-01-30T09:38:01;23.63;;;11.70;;
50483;SDS011;36409;52.168;20.878;2024-01-30T09:40:30;25.90;;;12.80;;
50483;SDS011;36409;52.168;20.878;2024-01-30T09:43:00;28.73;;;12.23;;
50483;SDS011;36409;52.168;20.878;2024-01-30T09:45:29;26.63;;;11.43;;
50483;SDS011;36409;52.168;20.878;2024-01-30T09:48:03;20.13;;;11.20;;
50483;SDS011;36409;52.168;20.878;2024-01-30T09:50:32;29.77;;;12.33;;
50483;SDS011;36409;52.168;20.878;2024-01-30T09:53:04;22.87;;;12.07;;
50483;SDS011;36409;52.168;20.878;2024-01-30T09:55:35;23.67;;;12.17;;
50483;SDS011;36409;52.168;20.878;2024-01-30T09:58:05;22.43;;;12.37;;
50483;SDS011;36409;52.168;20.878;2024-01-30T10:00:35;20.57;;;11.20;;
50483;SDS011;36409;52.168;20.878;2024-01-30T10:03:04;23.20;;;11.87;;
50483;SDS011;36409;52.168;20.878;2024-01-30T10:05:33;22.97;;;11.90;;
50483;SDS011;36409;52.168;20.878;2024-01-30T10:08:06;26.07;;;12.57;;
50483;SDS011;36409;52.168;20.878;2024-01-30T10:10:36;22.70;;;11.13;;
50483;SDS011;36409;52.168;20.878;2024-01-30T10:13:05;26.17;;;12.03;;
50483;SDS011;36409;52.168;20.878;2024-01-30T10:15:35;20.90;;;11.33;;
50483;SDS011;36409;52.168;20.878;2024-01-30T10:18:07;21.57;;;10.93;;
50483;SDS011;36409;52.168;20.878;2024-01-30T10:20:38;22.47;;;11.17;;
50483;SDS011;36409;52.168;20.878;2024-01-30T10:23:07;25.33;;;12.20;;
50483;SDS011;36409;52.168;20.878;2024-01-30T10:25:36;21.23;;;10.70;;
50483;SDS011;36409;52.168;20.878;2024-01-30T10:28:06;23.80;;;11.17;;
50483;SDS011;36409;52.168;20.878;2024-01-30T10:30:35;21.63;;;11.20;;
50483;SDS011;36409;52.168;20.878;2024-01-30T10:33:04;22.30;;;11.03;;
50483;SDS011;36409;52.168;20.878;2024-01-30T10:35:36;20.47;;;10.93;;
50483;SDS011;36409;52.168;20.878;2024-01-30T10:38:04;25.20;;;11.57;;
50483;SDS011;36409;52.168;20.878;2024-01-30T10:40:38;18.57;;;10.48;;
50483;SDS011;36409;52.168;20.878;2024-01-30T10:43:09;20.80;;;10.60;;
50483;SDS011;36409;52.168;20.878;2024-01-30T10:45:41;21.20;;;10.83;;
50483;SDS011;36409;52.168;20.878;2024-01-30T10:48:14;20.80;;;10.90;;
50483;SDS011;36409;52.168;20.878;2024-01-30T10:50:50;19.67;;;10.33;;
50483;SDS011;36409;52.168;20.878;2024-01-30T10:53:28;21.03;;;11.57;;
50483;SDS011;36409;52.168;20.878;2024-01-30T10:56:01;19.97;;;10.67;;
50483;SDS011;36409;52.168;20.878;2024-01-30T10:58:35;18.00;;;10.17;;
50483;SDS011;36409;52.168;20.878;2024-01-30T11:01:04;17.87;;;9.80;;
50483;SDS011;36409;52.168;20.878;2024-01-30T11:03:35;18.50;;;10.50;;
50483;SDS011;36409;52.168;20.878;2024-01-30T11:06:10;20.97;;;10.87;;
50483;SDS011;36409;52.168;20.878;2024-01-30T11:08:41;21.23;;;10.43;;
50483;SDS011;36409;52.168;20.878;2024-01-30T11:11:10;20.37;;;10.70;;
50483;SDS011;36409;52.168;20.878;2024-01-30T11:13:43;17.97;;;9.10;;
50483;SDS011;36409;52.168;20.878;2024-01-30T11:16:12;18.53;;;10.10;;
50483;SDS011;36409;52.168;20.878;2024-01-30T11:18:41;18.17;;;9.70;;
50483;SDS011;36409;52.168;20.878;2024-01-30T11:21:10;20.10;;;10.27;;
50483;SDS011;36409;52.168;20.878;2024-01-30T11:23:42;21.37;;;10.90;;
50483;SDS011;36409;52.168;20.878;2024-01-30T11:26:11;18.20;;;10.20;;
50483;SDS011;36409;52.168;20.878;2024-01-30T11:28:40;18.43;;;10.43;;
50483;SDS011;36409;52.168;20.878;2024-01-30T11:31:08;22.83;;;10.17;;
50483;SDS011;36409;52.168;20.878;2024-01-30T11:33:46;21.23;;;11.43;;
50483;SDS011;36409;52.168;20.878;2024-01-30T11:36:21;18.27;;;10.20;;
50483;SDS011;36409;52.168;20.878;2024-01-30T11:38:54;20.73;;;10.70;;
50483;SDS011;36409;52.168;20.878;2024-01-30T11:41:23;21.10;;;10.47;;
50483;SDS011;36409;52.168;20.878;2024-01-30T11:43:53;20.00;;;10.17;;
50483;SDS011;36409;52.168;20.878;2024-01-30T11:46:22;20.10;;;10.60;;
50483;SDS011;36409;52.168;20.878;2024-01-30T11:48:53;22.20;;;11.50;;
50483;SDS011;36409;52.168;20.878;2024-01-30T11:51:22;22.70;;;11.23;;
50483;SDS011;36409;52.168;20.878;2024-01-30T11:53:51;22.10;;;10.97;;
50483;SDS011;36409;52.168;20.878;2024-01-30T11:56:20;21.70;;;11.55;;
50483;SDS011;36409;52.168;20.878;2024-01-30T11:58:49;21.07;;;10.67;;
50483;SDS011;36409;52.168;20.878;2024-01-30T12:01:20;21.70;;;11.07;;
50483;SDS011;36409;52.168;20.878;2024-01-30T12:03:49;21.53;;;11.63;;
50483;SDS011;36409;52.168;20.878;2024-01-30T12:06:19;27.43;;;11.53;;
50483;SDS011;36409;52.168;20.878;2024-01-30T12:08:56;24.05;;;12.25;;
50483;SDS011;36409;52.168;20.878;2024-01-30T12:11:26;19.17;;;10.90;;
50483;SDS011;36409;52.168;20.878;2024-01-30T12:13:59;19.83;;;11.33;;
50483;SDS011;36409;52.168;20.878;2024-01-30T12:16:29;23.13;;;10.47;;
50483;SDS011;36409;52.168;20.878;2024-01-30T12:19:21;24.03;;;11.27;;
50483;SDS011;36409;52.168;20.878;2024-01-30T12:21:54;20.10;;;10.93;;
50483;SDS011;36409;52.168;20.878;2024-01-30T12:24:26;20.37;;;11.07;;
50483;SDS011;36409;52.168;20.878;2024-01-30T12:26:57;23.13;;;11.13;;
50483;SDS011;36409;52.168;20.878;2024-01-30T12:29:27;19.73;;;10.40;;
50483;SDS011;36409;52.168;20.878;2024-01-30T12:32:06;23.50;;;11.80;;
50483;SDS011;36409;52.168;20.878;2024-01-30T12:34:40;17.67;;;10.63;;
50483;SDS011;36409;52.168;20.878;2024-01-30T12:37:24;22.03;;;10.50;;
50483;SDS011;36409;52.168;20.878;2024-01-30T12:39:54;20.13;;;9.73;;
50483;SDS011;36409;52.168;20.878;2024-01-30T12:42:24;23.57;;;11.07;;
50483;SDS011;36409;52.168;20.878;2024-01-30T12:44:56;24.80;;;10.80;;
50483;SDS011;36409;52.168;20.878;2024-01-30T12:47:26;19.80;;;11.23;;
50483;SDS011;36409;52.168;20.878;2024-01-30T12:49:55;19.93;;;10.60;;
50483;SDS011;36409;52.168;20.878;2024-01-30T12:52:24;23.37;;;11.60;;
50483;SDS011;36409;52.168;20.878;2024-01-30T12:54:54;21.77;;;11.27;;
50483;SDS011;36409;52.168;20.878;2024-01-30T12:57:23;23.47;;;10.67;;
50483;SDS011;36409;52.168;20.878;2024-01-30T12:59:52;20.17;;;11.03;;
50483;SDS011;36409;52.168;20.878;2024-01-30T13:02:21;19.03;;;11.00;;
50483;SDS011;36409;52.168;20.878;2024-01-30T13:04:51;20.80;;;10.80;;
50483;SDS011;36409;52.168;20.878;2024-01-30T13:07:20;22.63;;;11.57;;
50483;SDS011;36409;52.168;20.878;2024-01-30T13:09:51;23.07;;;11.23;;
50483;SDS011;36409;52.168;20.878;2024-01-30T13:12:21;20.87;;;10.97;;
50483;SDS011;36409;52.168;20.878;2024-01-30T13:14:51;22.47;;;11.00;;
50483;SDS011;36409;52.168;20.878;2024-01-30T13:17:20;23.50;;;11.33;;
50483;SDS011;36409;52.168;20.878;2024-01-30T13:19:52;26.03;;;11.93;;
50483;SDS011;36409;52.168;20.878;2024-01-30T13:22:39;21.57;;;11.13;;
50483;SDS011;36409;52.168;20.878;2024-01-30T13:25:08;21.10;;;11.03;;
50483;SDS011;36409;52.168;20.878;2024-01-30T13:27:37;22.93;;;11.20;;
50483;SDS011;36409;52.168;20.878;2024-01-30T13:30:07;23.80;;;11.27;;
50483;SDS011;36409;52.168;20.878;2024-01-30T13:32:37;23.57;;;11.47;;
50483;SDS011;36409;52.168;20.878;2024-01-30T13:35:11;23.17;;;11.43;;
50483;SDS011;36409;52.168;20.878;2024-01-30T13:37:40;20.83;;;11.33;;
50483;SDS011;36409;52.168;20.878;2024-01-30T13:40:10;25.00;;;11.53;;
50483;SDS011;36409;52.168;20.878;2024-01-30T13:42:42;19.67;;;11.30;;
50483;SDS011;36409;52.168;20.878;2024-01-30T13:45:11;21.30;;;11.13;;
50483;SDS011;36409;52.168;20.878;2024-01-30T13:47:40;19.77;;;10.77;;
50483;SDS011;36409;52.168;20.878;2024-01-30T13:50:09;20.60;;;11.80;;
50483;SDS011;36409;52.168;20.878;2024-01-30T13:52:42;20.07;;;10.73;;
50483;SDS011;36409;52.168;20.878;2024-01-30T13:55:17;22.90;;;11.87;;
50483;SDS011;36409;52.168;20.878;2024-01-30T13:57:49;21.87;;;11.37;;
50483;SDS011;36409;52.168;20.878;2024-01-30T14:00:20;19.80;;;11.13;;
50483;SDS011;36409;52.168;20.878;2024-01-30T14:02:50;22.07;;;10.53;;
50483;SDS011;36409;52.168;20.878;2024-01-30T14:05:24;23.83;;;11.40;;
50483;SDS011;36409;52.168;20.878;2024-01-30T14:07:57;22.17;;;10.83;;
50483;SDS011;36409;52.168;20.878;2024-01-30T14:10:27;23.37;;;11.30;;
50483;SDS011;36409;52.168;20.878;2024-01-30T14:12:56;22.77;;;11.20;;
50483;SDS011;36409;52.168;20.878;2024-01-30T14:15:26;20.27;;;10.47;;
50483;SDS011;36409;52.168;20.878;2024-01-30T14:17:56;22.00;;;11.30;;
50483;SDS011;36409;52.168;20.878;2024-01-30T14:20:27;23.00;;;11.10;;
50483;SDS011;36409;52.168;20.878;2024-01-30T14:22:56;20.67;;;10.90;;
50483;SDS011;36409;52.168;20.878;2024-01-30T14:25:25;19.47;;;10.50;;
50483;SDS011;36409;52.168;20.878;2024-01-30T14:27:54;22.37;;;10.57;;